Time;durP1;ratioP1;P1;durP2;ratioP2;P2;SDS_P1;SDS_P2;PMS_P1;PMS_P2;Temp;Humidity;BMP_temperature;BMP_pressure;BME280_temperature;BME280_humidity;BME280_pressure;Samples;Min_cycle;Max_cycle;Signal;HPM_P1;HPM_P2
2022/09/22 00:01:39;;;;;;;5.88;3.83;;;7.40;99.90;;;;;;4964346;28;20045;-89
2022/09/22 00:04:08;;;;;;;7.85;3.95;;;7.50;99.90;;;;;;4947273;28;20122;-90
2022/09/22 00:06:46;;;;;;;6.30;4.38;;;7.30;99.90;;;;;;4948112;28;20125;-89
2022/09/22 00:09:14;;;;;;;5.53;3.80;;;7.40;99.90;;;;;;4948173;28;20093;-89
2022/09/22 00:11:43;;;;;;;4.82;3.53;;;7.50;99.90;;;;;;4960491;28;20401;-90
2022/09/22 00:14:19;;;;;;;7.63;3.63;;;7.40;99.90;;;;;;4965561;28;20084;-90
2022/09/22 00:16:59;;;;;;;6.93;4.10;;;7.30;99.90;;;;;;4947078;28;20043;-90
2022/09/22 00:19:34;;;;;;;6.28;3.80;;;7.30;99.90;;;;;;4964148;28;20050;-91
2022/09/22 00:22:00;;;;;;;6.03;3.78;;;7.30;99.90;;;;;;4948068;28;20035;-91
2022/09/22 00:24:26;;;;;;;6.40;3.47;;;7.30;99.90;;;;;;4946829;28;20394;-90
2022/09/22 00:26:56;;;;;;;5.80;3.40;;;7.20;99.90;;;;;;4961567;28;20078;-90
2022/09/22 00:29:23;;;;;;;6.70;3.47;;;7.10;99.90;;;;;;4946685;28;20064;-91
2022/09/22 00:31:49;;;;;;;6.95;3.65;;;7.20;99.90;;;;;;4954959;28;20059;-91
2022/09/22 00:34:21;;;;;;;4.18;3.00;;;7.30;99.90;;;;;;4942897;28;20071;-89
2022/09/22 00:36:47;;;;;;;5.07;2.83;;;7.20;99.90;;;;;;4954576;28;20043;-91
2022/09/22 00:39:15;;;;;;;3.53;2.50;;;7.20;99.90;;;;;;4959012;28;20058;-90
2022/09/22 00:41:44;;;;;;;4.93;2.60;;;7.20;99.90;;;;;;4956967;28;20197;-90
2022/09/22 00:44:28;;;;;;;5.32;2.88;;;7.10;99.90;;;;;;4941886;28;20034;-90
2022/09/22 00:46:54;;;;;;;6.78;2.97;;;7.20;99.90;;;;;;4940796;28;20038;-91
2022/09/22 00:49:30;;;;;;;6.70;3.50;;;7.20;99.90;;;;;;4942353;28;20041;-90
2022/09/22 00:51:56;;;;;;;8.30;3.42;;;7.20;99.90;;;;;;4956976;28;20415;-91
2022/09/22 00:54:22;;;;;;;5.63;3.45;;;7.10;99.90;;;;;;4940482;28;20039;-92
2022/09/22 00:57:02;;;;;;;6.00;3.40;;;7.10;99.90;;;;;;4957695;28;20314;-92
2022/09/22 00:59:28;;;;;;;7.43;3.30;;;7.10;99.90;;;;;;4958459;28;20042;-92
2022/09/22 01:01:57;;;;;;;4.22;2.67;;;7.10;99.90;;;;;;4936568;28;20540;-91
2022/09/22 01:04:23;;;;;;;7.28;3.08;;;7.10;99.90;;;;;;4974316;28;20803;-90
2022/09/22 01:06:49;;;;;;;6.75;3.47;;;7.10;99.90;;;;;;4938843;28;20102;-91
2022/09/22 01:09:15;;;;;;;5.60;3.22;;;7.00;99.90;;;;;;4939657;28;20047;-91
2022/09/22 01:11:41;;;;;;;4.97;3.22;;;7.00;99.90;;;;;;4942114;28;20043;-91
2022/09/22 01:14:41;;;;;;;3.85;3.03;;;7.00;99.90;;;;;;4943841;28;20039;-93
2022/09/22 01:17:35;;;;;;;7.30;3.15;;;7.00;99.90;;;;;;4942022;28;20136;-92
2022/09/22 01:20:25;;;;;;;6.10;3.90;;;6.90;99.90;;;;;;4943584;28;20074;-91
2022/09/22 01:23:23;;;;;;;4.55;2.90;;;7.00;99.90;;;;;;4935080;28;20039;-90
2022/09/22 01:26:10;;;;;;;6.05;3.25;;;6.90;99.90;;;;;;4944738;28;20133;-90
2022/09/22 01:28:38;;;;;;;5.80;3.30;;;6.90;99.90;;;;;;4941776;28;20026;-90
2022/09/22 01:31:16;;;;;;;3.80;3.05;;;6.90;99.90;;;;;;4936809;28;20047;-90
2022/09/22 01:33:53;;;;;;;7.28;3.08;;;6.90;99.90;;;;;;4944138;28;20054;-91
2022/09/22 01:36:30;;;;;;;7.43;3.10;;;6.90;99.90;;;;;;4954949;28;20042;-92
2022/09/22 01:39:16;;;;;;;12.68;4.13;;;6.70;99.90;;;;;;4936824;28;20118;-90
2022/09/22 01:41:42;;;;;;;6.28;3.40;;;6.70;99.90;;;;;;4933965;28;20510;-90
2022/09/22 01:44:15;;;;;;;6.47;3.55;;;6.70;99.90;;;;;;4960864;28;20118;-91
2022/09/22 01:46:52;;;;;;;5.28;3.50;;;6.70;99.90;;;;;;4932543;28;20542;-91
2022/09/22 01:49:20;;;;;;;5.15;3.53;;;6.70;99.90;;;;;;4958782;28;20149;-91
2022/09/22 01:51:55;;;;;;;5.85;3.00;;;6.70;99.90;;;;;;4940729;28;20041;-91
2022/09/22 01:54:31;;;;;;;4.50;3.00;;;6.70;99.90;;;;;;4936889;28;20055;-91
2022/09/22 01:57:11;;;;;;;3.72;2.55;;;6.60;99.90;;;;;;4939541;28;20039;-91
2022/09/22 01:59:41;;;;;;;3.50;2.80;;;6.70;99.90;;;;;;4939910;28;20038;-91
2022/09/22 02:02:15;;;;;;;3.03;2.70;;;6.70;99.90;;;;;;4946671;28;20173;-90
2022/09/22 02:04:46;;;;;;;5.13;3.10;;;6.60;99.90;;;;;;4960434;28;20030;-91
2022/09/22 02:07:19;;;;;;;4.40;2.97;;;6.60;99.90;;;;;;4943102;28;20038;-91
2022/09/22 02:09:47;;;;;;;5.63;3.20;;;6.50;99.90;;;;;;4956400;28;20502;-91
2022/09/22 02:12:17;;;;;;;4.25;2.80;;;6.50;99.90;;;;;;4940591;28;20046;-91
2022/09/22 02:14:44;;;;;;;5.28;3.20;;;6.50;99.90;;;;;;4942566;28;20085;-91
2022/09/22 02:17:10;;;;;;;4.35;2.70;;;6.40;99.90;;;;;;4942952;28;20348;-92
2022/09/22 02:19:38;;;;;;;5.32;2.90;;;6.40;99.90;;;;;;4936677;28;20517;-92
2022/09/22 02:22:05;;;;;;;4.57;2.72;;;6.40;99.90;;;;;;4933664;28;20047;-91
2022/09/22 02:24:37;;;;;;;5.80;2.70;;;6.40;99.90;;;;;;4954796;28;20495;-91
2022/09/22 02:27:12;;;;;;;4.60;3.22;;;6.40;99.90;;;;;;4936849;29;20046;-91
2022/09/22 02:29:51;;;;;;;5.25;2.75;;;6.40;99.90;;;;;;4954056;28;20039;-91
2022/09/22 02:32:19;;;;;;;3.88;2.97;;;6.40;99.90;;;;;;4955620;28;20519;-92
2022/09/22 02:34:46;;;;;;;3.40;2.63;;;6.40;99.90;;;;;;4958545;28;20043;-91
2022/09/22 02:37:34;;;;;;;3.83;2.65;;;6.30;99.90;;;;;;4955481;28;20034;-92
2022/09/22 02:40:13;;;;;;;5.65;3.28;;;6.30;99.90;;;;;;4929588;28;20046;-91
2022/09/22 02:42:47;;;;;;;67.85;9.00;;;6.20;99.90;;;;;;4940176;28;20035;-92
2022/09/22 02:45:18;;;;;;;4.60;3.00;;;6.30;99.90;;;;;;4937073;28;20043;-92
2022/09/22 02:48:08;;;;;;;5.00;2.72;;;6.20;99.90;;;;;;4947057;28;20039;-91
2022/09/22 02:50:34;;;;;;;4.63;2.90;;;6.20;99.90;;;;;;4942127;28;20073;-92
2022/09/22 02:53:11;;;;;;;3.58;2.78;;;6.20;99.90;;;;;;4937374;28;20546;-91
2022/09/22 02:55:37;;;;;;;3.95;2.80;;;6.10;99.90;;;;;;4940355;28;20090;-91
2022/09/22 02:58:02;;;;;;;5.10;3.08;;;6.20;99.90;;;;;;4941603;28;20055;-92
2022/09/22 03:00:28;;;;;;;4.07;3.05;;;6.10;99.90;;;;;;4938092;28;20043;-92
2022/09/22 03:02:54;;;;;;;4.63;2.67;;;6.10;99.90;;;;;;4955497;28;20126;-92
2022/09/22 03:05:19;;;;;;;3.25;2.80;;;6.00;99.90;;;;;;4939734;28;20034;-91
2022/09/22 03:07:45;;;;;;;2.92;2.50;;;6.20;99.90;;;;;;4959254;28;20081;-91
2022/09/22 03:10:11;;;;;;;3.67;2.72;;;6.00;99.90;;;;;;4940165;28;20059;-91
2022/09/22 03:12:41;;;;;;;4.32;3.20;;;6.00;99.90;;;;;;4932991;28;20062;-92
2022/09/22 03:15:11;;;;;;;5.32;2.92;;;6.10;99.90;;;;;;4938455;28;20451;-92
2022/09/22 03:17:37;;;;;;;3.75;3.25;;;6.10;99.90;;;;;;4943989;28;20039;-92
2022/09/22 03:20:05;;;;;;;4.25;2.80;;;6.00;99.90;;;;;;4943640;28;20030;-91
2022/09/22 03:22:31;;;;;;;4.47;2.60;;;6.10;99.90;;;;;;4960506;28;20039;-91
2022/09/22 03:24:56;;;;;;;7.00;2.70;;;6.00;99.90;;;;;;4937767;28;20039;-92
2022/09/22 03:27:22;;;;;;;4.53;2.75;;;6.00;99.90;;;;;;4951793;28;20663;-91
2022/09/22 03:29:48;;;;;;;3.88;3.00;;;5.90;99.90;;;;;;4955881;28;20109;-91
2022/09/22 03:32:14;;;;;;;4.70;2.70;;;5.90;99.90;;;;;;4941339;28;20070;-91
2022/09/22 03:34:39;;;;;;;6.30;3.17;;;6.00;99.90;;;;;;4952465;28;20566;-92
2022/09/22 03:37:05;;;;;;;3.60;2.50;;;6.00;99.90;;;;;;4960467;28;20168;-92
2022/09/22 03:39:31;;;;;;;4.97;2.28;;;5.90;99.90;;;;;;4940621;28;20046;-92
2022/09/22 03:41:57;;;;;;;2.85;2.55;;;6.00;99.90;;;;;;4962068;28;20051;-92
2022/09/22 03:44:25;;;;;;;4.45;2.70;;;5.80;99.90;;;;;;4977007;28;20050;-91
2022/09/22 03:46:51;;;;;;;4.13;2.15;;;5.90;99.90;;;;;;4942666;28;20043;-92
2022/09/22 03:49:17;;;;;;;4.63;2.45;;;5.80;99.90;;;;;;4944813;28;20057;-92
2022/09/22 03:51:42;;;;;;;3.65;2.40;;;5.80;99.90;;;;;;4943172;28;20038;-92
2022/09/22 03:54:08;;;;;;;3.97;2.40;;;5.70;99.90;;;;;;4958623;28;20066;-91
2022/09/22 03:56:34;;;;;;;3.30;2.25;;;5.70;99.90;;;;;;4955334;28;20282;-92
2022/09/22 03:59:00;;;;;;;4.53;2.60;;;5.70;99.90;;;;;;4961353;28;20431;-91
2022/09/22 04:01:26;;;;;;;5.63;2.80;;;5.70;99.90;;;;;;4940885;28;20047;-92
2022/09/22 04:03:51;;;;;;;4.88;3.00;;;5.70;99.90;;;;;;4945359;28;20122;-92
2022/09/22 04:06:17;;;;;;;4.55;2.60;;;5.80;99.90;;;;;;4959939;28;20032;-92
2022/09/22 04:08:43;;;;;;;4.65;2.83;;;5.70;99.90;;;;;;4942024;28;20043;-91
2022/09/22 04:11:08;;;;;;;3.92;2.67;;;5.70;99.90;;;;;;4959642;28;20676;-92
2022/09/22 04:13:34;;;;;;;5.25;2.83;;;5.70;99.90;;;;;;4941633;28;20046;-91
2022/09/22 04:16:04;;;;;;;2.75;2.47;;;5.60;99.90;;;;;;4938215;28;20046;-91
2022/09/22 04:18:30;;;;;;;5.57;3.17;;;5.60;99.90;;;;;;4942879;28;20740;-91
2022/09/22 04:20:57;;;;;;;4.85;3.15;;;5.70;99.90;;;;;;4942632;28;20046;-92
2022/09/22 04:23:24;;;;;;;11.77;3.60;;;5.50;99.90;;;;;;4943666;28;20063;-91
2022/09/22 04:25:50;;;;;;;3.72;2.83;;;5.70;99.90;;;;;;4944263;28;20049;-91
2022/09/22 04:28:16;;;;;;;4.07;2.88;;;5.60;99.90;;;;;;4960888;28;20035;-91
2022/09/22 04:30:42;;;;;;;6.03;3.30;;;5.60;99.90;;;;;;4946315;28;20453;-91
2022/09/22 04:33:09;;;;;;;4.05;3.10;;;5.60;99.90;;;;;;4945603;28;20514;-91
2022/09/22 04:35:35;;;;;;;4.88;2.90;;;5.60;99.90;;;;;;4950750;28;20042;-92
2022/09/22 04:38:01;;;;;;;5.45;3.25;;;5.70;99.90;;;;;;4946825;28;20532;-92
2022/09/22 04:40:27;;;;;;;6.85;3.67;;;5.60;99.90;;;;;;4961282;28;20462;-92
2022/09/22 04:42:52;;;;;;;4.55;3.30;;;5.50;99.90;;;;;;4960500;28;20030;-91
2022/09/22 04:45:18;;;;;;;5.70;3.55;;;5.50;99.90;;;;;;4946391;28;20038;-91
2022/09/22 04:47:49;;;;;;;4.95;3.80;;;5.60;99.90;;;;;;4948707;28;20197;-91
2022/09/22 04:50:15;;;;;;;5.30;3.40;;;5.70;99.90;;;;;;4944722;28;20730;-92
2022/09/22 04:52:46;;;;;;;4.30;2.70;;;5.50;99.90;;;;;;4941623;28;20243;-93
2022/09/22 04:55:14;;;;;;;4.40;3.05;;;5.50;99.90;;;;;;4960380;28;20066;-92
2022/09/22 04:57:51;;;;;;;25.88;3.40;;;5.60;99.90;;;;;;4941568;28;20073;-93
2022/09/22 05:00:17;;;;;;;5.85;2.90;;;5.60;99.90;;;;;;4957808;28;20058;-91
2022/09/22 05:02:43;;;;;;;3.55;3.05;;;5.50;99.90;;;;;;4945798;28;20117;-91
2022/09/22 05:05:10;;;;;;;4.22;2.95;;;5.50;99.90;;;;;;4943522;28;20173;-91
2022/09/22 05:07:44;;;;;;;7.85;2.97;;;5.40;99.90;;;;;;4959753;28;20060;-91
2022/09/22 05:10:13;;;;;;;8.65;3.10;;;5.50;99.90;;;;;;4961706;28;20034;-91
2022/09/22 05:12:40;;;;;;;4.75;3.00;;;5.60;99.90;;;;;;4947717;28;20077;-92
2022/09/22 05:15:07;;;;;;;4.82;3.42;;;5.60;99.90;;;;;;4944936;28;20030;-91
2022/09/22 05:17:35;;;;;;;6.13;3.30;;;5.40;99.90;;;;;;4943008;28;20490;-92
2022/09/22 05:20:02;;;;;;;8.05;3.60;;;5.50;99.90;;;;;;4945459;28;20054;-92
2022/09/22 05:22:28;;;;;;;7.03;4.00;;;5.50;99.90;;;;;;4945220;28;20097;-92
2022/09/22 05:24:54;;;;;;;8.10;3.78;;;5.50;99.90;;;;;;4946678;28;20532;-91
2022/09/22 05:27:20;;;;;;;7.60;3.78;;;5.50;99.90;;;;;;4965307;28;20034;-92
2022/09/22 05:29:46;;;;;;;6.63;4.05;;;5.50;99.90;;;;;;4942106;28;20121;-92
2022/09/22 05:32:11;;;;;;;6.25;3.58;;;5.50;99.90;;;;;;4939521;28;20051;-93
2022/09/22 05:34:37;;;;;;;5.93;3.30;;;5.60;99.90;;;;;;4941448;28;20047;-92
2022/09/22 05:37:03;;;;;;;5.05;3.50;;;5.60;99.90;;;;;;4958858;28;20119;-92
2022/09/22 05:39:28;;;;;;;4.57;3.80;;;5.60;99.90;;;;;;4940889;28;20042;-92
2022/09/22 05:41:55;;;;;;;5.20;3.47;;;5.70;99.90;;;;;;4941631;28;20049;-92
2022/09/22 05:44:20;;;;;;;4.05;3.58;;;5.60;99.90;;;;;;4955539;28;20043;-92
2022/09/22 05:46:47;;;;;;;7.88;3.92;;;5.70;99.90;;;;;;4936819;28;20314;-91
2022/09/22 05:49:12;;;;;;;6.30;3.67;;;5.80;99.90;;;;;;4959528;28;20597;-92
2022/09/22 05:51:41;;;;;;;10.88;4.10;;;5.80;99.90;;;;;;4938723;28;20181;-92
2022/09/22 05:54:08;;;;;;;6.95;3.85;;;5.90;99.90;;;;;;4942077;28;20116;-92
2022/09/22 05:56:37;;;;;;;7.18;4.13;;;5.90;99.90;;;;;;4944842;28;20042;-92
2022/09/22 05:59:02;;;;;;;7.30;5.00;;;6.00;99.90;;;;;;4937504;28;20491;-91
2022/09/22 06:01:28;;;;;;;8.35;4.47;;;6.10;99.90;;;;;;4937016;28;20102;-91
2022/09/22 06:03:53;;;;;;;6.05;4.75;;;6.10;99.90;;;;;;4939947;28;20050;-91
2022/09/22 06:06:19;;;;;;;10.35;5.28;;;6.10;99.90;;;;;;4938335;28;20045;-92
2022/09/22 06:08:45;;;;;;;8.85;4.35;;;6.30;99.90;;;;;;4941274;28;20046;-91
2022/09/22 06:11:10;;;;;;;9.35;5.40;;;6.20;99.90;;;;;;4955697;28;20035;-91
2022/09/22 06:13:38;;;;;;;9.75;5.43;;;6.30;99.90;;;;;;4936953;28;20503;-91
2022/09/22 06:16:04;;;;;;;6.50;5.20;;;6.50;99.90;;;;;;4943648;28;20174;-91
2022/09/22 06:18:33;;;;;;;6.40;5.07;;;6.50;99.90;;;;;;4938924;28;20064;-91
2022/09/22 06:20:58;;;;;;;8.43;5.85;;;6.50;99.90;;;;;;4934245;28;20039;-92
2022/09/22 06:23:30;;;;;;;8.20;5.78;;;6.60;99.90;;;;;;4942457;28;20069;-91
2022/09/22 06:25:58;;;;;;;11.25;7.32;;;6.70;99.90;;;;;;4971060;28;20039;-92
2022/09/22 06:28:27;;;;;;;15.65;9.25;;;6.80;99.90;;;;;;4959793;28;20049;-90
2022/09/22 06:30:57;;;;;;;13.15;7.38;;;6.90;99.90;;;;;;4939722;28;20058;-92
2022/09/22 06:33:23;;;;;;;12.32;7.88;;;7.10;99.90;;;;;;4943213;28;20150;-92
2022/09/22 06:35:49;;;;;;;12.77;9.27;;;7.10;99.90;;;;;;4941424;28;20159;-91
2022/09/22 06:38:15;;;;;;;14.95;9.57;;;7.30;99.90;;;;;;4937001;28;20354;-93
2022/09/22 06:40:41;;;;;;;16.52;9.60;;;7.30;99.90;;;;;;4939721;28;20062;-92
2022/09/22 06:43:14;;;;;;;14.50;10.18;;;7.50;99.90;;;;;;4935788;28;20031;-91
2022/09/22 06:45:41;;;;;;;11.50;9.07;;;7.60;99.90;;;;;;4939390;28;20039;-92
2022/09/22 06:48:09;;;;;;;16.63;10.98;;;7.60;99.90;;;;;;4940434;28;20031;-91
2022/09/22 06:50:35;;;;;;;13.43;10.82;;;7.80;99.90;;;;;;4958249;28;20046;-91
2022/09/22 06:53:05;;;;;;;14.73;10.60;;;7.80;99.90;;;;;;4952596;28;20593;-91
2022/09/22 06:55:32;;;;;;;14.55;10.95;;;7.90;99.90;;;;;;4939375;28;20051;-92
2022/09/22 06:57:59;;;;;;;14.88;11.52;;;8.00;99.90;;;;;;4943235;28;20039;-91
2022/09/22 07:00:31;;;;;;;18.23;11.60;;;8.10;99.90;;;;;;4938881;28;20039;-92
2022/09/22 07:03:21;;;;;;;14.52;11.43;;;8.30;99.90;;;;;;4942726;28;20030;-91
2022/09/22 07:05:59;;;;;;;12.75;10.95;;;8.40;99.90;;;;;;4958876;28;20134;-92
2022/09/22 07:08:27;;;;;;;17.63;11.93;;;8.50;99.90;;;;;;4938876;28;20049;-91
2022/09/22 07:10:55;;;;;;;17.73;11.48;;;8.50;99.90;;;;;;4941511;28;20065;-91
2022/09/22 07:13:25;;;;;;;16.40;11.50;;;8.60;99.90;;;;;;4961795;28;20043;-91
2022/09/22 07:15:51;;;;;;;14.82;10.77;;;8.70;99.90;;;;;;4948607;28;20393;-91
2022/09/22 07:18:16;;;;;;;13.73;11.30;;;8.90;99.90;;;;;;4959372;28;20050;-92
2022/09/22 07:20:45;;;;;;;16.45;10.65;;;9.00;99.90;;;;;;4941774;28;20042;-92
2022/09/22 07:23:19;;;;;;;17.45;11.48;;;9.10;99.90;;;;;;4942495;28;20129;-92
2022/09/22 07:25:59;;;;;;;16.33;11.23;;;9.20;99.90;;;;;;4963341;28;20039;-92
2022/09/22 07:28:28;;;;;;;12.65;10.98;;;9.40;99.90;;;;;;4946140;28;20138;-92
2022/09/22 07:31:22;;;;;;;14.38;11.68;;;9.40;99.90;;;;;;4941304;28;20039;-92
2022/09/22 07:33:48;;;;;;;16.05;12.25;;;9.60;99.90;;;;;;4959500;28;20027;-91
2022/09/22 07:36:19;;;;;;;15.50;12.52;;;9.80;99.90;;;;;;4944547;28;20454;-92
2022/09/22 07:38:48;;;;;;;14.05;12.02;;;9.90;99.90;;;;;;4945925;28;20055;-92
2022/09/22 07:41:19;;;;;;;14.65;11.70;;;10.00;99.90;;;;;;4946233;28;20078;-92
2022/09/22 07:43:49;;;;;;;17.73;11.80;;;10.00;99.90;;;;;;4961435;28;20118;-92
2022/09/22 07:46:15;;;;;;;17.60;11.75;;;10.10;99.90;;;;;;4941316;28;20066;-92
2022/09/22 07:48:46;;;;;;;13.55;11.15;;;10.30;99.90;;;;;;4942237;28;20129;-92
2022/09/22 07:51:21;;;;;;;13.85;10.85;;;10.40;99.90;;;;;;4944071;28;20047;-92
2022/09/22 07:54:01;;;;;;;16.20;11.23;;;10.60;99.90;;;;;;4964102;28;20046;-92
2022/09/22 07:56:27;;;;;;;12.77;10.15;;;10.70;99.90;;;;;;4958870;28;20039;-91
2022/09/22 07:58:54;;;;;;;13.50;9.50;;;10.80;99.90;;;;;;4947082;28;20045;-92
2022/09/22 08:01:21;;;;;;;11.68;9.63;;;10.90;99.90;;;;;;4940190;28;20174;-92
2022/09/22 08:03:48;;;;;;;13.43;9.70;;;11.10;99.90;;;;;;4947074;28;20034;-92
2022/09/22 08:06:16;;;;;;;12.63;9.95;;;11.20;99.90;;;;;;4938795;28;20066;-91
2022/09/22 08:08:43;;;;;;;14.88;9.98;;;11.30;99.90;;;;;;4945508;28;20042;-92
2022/09/22 08:11:12;;;;;;;15.82;9.35;;;11.40;99.90;;;;;;4946883;28;20035;-92
2022/09/22 08:13:38;;;;;;;10.07;8.65;;;11.60;99.90;;;;;;4943345;28;20042;-91
2022/09/22 08:16:05;;;;;;;11.57;8.23;;;11.60;99.90;;;;;;4942839;28;20057;-92
2022/09/22 08:18:32;;;;;;;10.90;8.25;;;11.80;99.90;;;;;;4962791;28;20043;-91
2022/09/22 08:21:00;;;;;;;10.68;8.00;;;11.90;99.90;;;;;;4945555;28;20178;-92
2022/09/22 08:23:28;;;;;;;10.80;7.93;;;12.10;99.90;;;;;;4943853;28;20039;-92
2022/09/22 08:25:54;;;;;;;11.48;7.57;;;12.20;99.90;;;;;;4943610;28;20050;-92
2022/09/22 08:28:19;;;;;;;10.38;6.88;;;12.30;15.10;;;;;;4947027;28;20556;-91
2022/09/22 08:30:46;;;;;;;12.43;7.22;;;12.40;1.00;;;;;;4943790;28;20552;-91
2022/09/22 08:33:12;;;;;;;9.93;7.07;;;12.50;1.00;;;;;;4938232;28;20042;-91
2022/09/22 08:36:02;;;;;;;8.70;6.25;;;12.70;99.90;;;;;;4949504;28;20090;-92
2022/09/22 08:38:28;;;;;;;12.70;6.50;;;12.70;1.00;;;;;;4946923;28;20034;-91
2022/09/22 08:41:33;;;;;;;9.35;6.72;;;12.90;99.90;;;;;;4964375;28;20070;-91
2022/09/22 08:44:24;;;;;;;9.85;6.38;;;13.10;99.90;;;;;;4959994;28;20045;-92
2022/09/22 08:46:53;;;;;;;8.25;5.72;;;13.20;99.90;;;;;;4965264;28;20038;-92
2022/09/22 08:52:39;;;;;;;8.75;4.75;;;13.40;99.90;;;;;;4962601;28;20053;-92
2022/09/22 08:55:13;;;;;;;12.00;5.43;;;13.50;94.90;;;;;;4944866;28;20563;-92
2022/09/22 08:57:55;;;;;;;8.75;4.78;;;13.70;30.40;;;;;;4944594;28;20049;-92
2022/09/22 09:00:21;;;;;;;7.97;4.95;;;13.80;24.50;;;;;;4944513;28;20165;-91
2022/09/22 09:03:07;;;;;;;5.93;4.28;;;14.00;99.90;;;;;;4963016;28;20491;-92
2022/09/22 09:05:37;;;;;;;4.65;4.20;;;14.20;13.20;;;;;;4939764;28;20049;-92
2022/09/22 09:08:41;;;;;;;5.63;4.15;;;14.20;99.90;;;;;;4945926;28;20473;-92
2022/09/22 09:11:43;;;;;;;5.50;4.30;;;14.40;99.90;;;;;;4945847;28;20197;-91
2022/09/22 09:14:17;;;;;;;7.50;4.30;;;14.40;99.90;;;;;;4947344;28;20046;-91
2022/09/22 09:16:57;;;;;;;7.40;4.03;;;14.60;99.90;;;;;;4946615;28;20049;-92
2022/09/22 09:19:36;;;;;;;5.18;3.67;;;14.70;1.00;;;;;;4962494;28;20047;-92
2022/09/22 09:22:11;;;;;;;4.97;3.30;;;14.70;37.50;;;;;;4964057;28;20050;-92
2022/09/22 09:24:44;;;;;;;6.10;3.20;;;14.90;99.90;;;;;;4945638;28;20038;-92
2022/09/22 09:27:20;;;;;;;5.85;3.78;;;14.90;99.90;;;;;;4951740;28;20158;-92
2022/09/22 09:29:50;;;;;;;5.40;3.33;;;14.90;35.30;;;;;;4948398;28;20053;-92
2022/09/22 09:32:32;;;;;;;6.93;3.75;;;15.00;1.00;;;;;;4962766;28;20051;-92
2022/09/22 09:34:59;;;;;;;6.32;3.20;;;15.20;99.90;;;;;;4946329;28;20105;-91
2022/09/22 09:37:24;;;;;;;4.97;3.60;;;15.30;99.90;;;;;;4950203;28;20522;-92
2022/09/22 09:39:51;;;;;;;5.65;3.38;;;15.40;99.90;;;;;;4951358;28;20106;-92
2022/09/22 09:42:27;;;;;;;5.90;3.20;;;15.60;99.90;;;;;;4952164;28;20043;-92
2022/09/22 09:44:56;;;;;;;4.25;2.85;;;15.70;99.90;;;;;;4962540;28;20514;-91
2022/09/22 09:47:56;;;;;;;8.30;3.70;;;15.80;99.90;;;;;;4941850;28;20039;-93
2022/09/22 09:50:23;;;;;;;6.78;3.35;;;15.80;99.90;;;;;;4947237;28;20415;-92
2022/09/22 09:52:52;;;;;;;6.63;2.85;;;15.90;1.00;;;;;;4942451;28;20097;-92
2022/09/22 09:55:30;;;;;;;7.55;3.50;;;16.00;1.00;;;;;;4957628;28;20039;-92
2022/09/22 10:00:29;;;;;;;5.32;3.53;;;16.20;99.90;;;;;;4942563;28;20130;-91
2022/09/22 10:01:01;;;;;;;6.35;3.50;;;16.00;99.90;;;;;;4960788;28;20057;-92
2022/09/22 10:03:33;;;;;;;5.43;2.92;;;16.20;99.90;;;;;;4960846;28;20070;-92
2022/09/22 10:06:08;;;;;;;8.13;3.35;;;16.40;99.90;;;;;;4943632;28;20135;-92
2022/09/22 10:08:46;;;;;;;5.25;2.88;;;16.40;99.90;;;;;;4948244;28;20096;-93
2022/09/22 10:11:13;;;;;;;5.10;3.22;;;16.40;99.90;;;;;;4946662;28;20478;-93
2022/09/22 10:13:41;;;;;;;4.68;2.80;;;16.50;99.90;;;;;;4948204;28;20043;-92
2022/09/22 10:16:25;;;;;;;5.03;3.42;;;16.50;35.30;;;;;;4945675;28;20038;-92
2022/09/22 10:19:18;;;;;;;4.53;2.92;;;16.50;91.50;;;;;;4941124;28;20487;-91
2022/09/22 10:21:44;;;;;;;5.07;2.97;;;16.60;32.40;;;;;;4951276;28;20081;-92
2022/09/22 10:24:31;;;;;;;9.30;3.72;;;16.80;99.90;;;;;;4961645;28;20038;-92
2022/09/22 10:26:58;;;;;;;5.35;3.05;;;17.10;73.90;;;;;;4954743;28;20039;-92
2022/09/22 10:29:26;;;;;;;6.05;3.78;;;17.00;1.00;;;;;;4952953;28;20074;-92
2022/09/22 10:32:01;;;;;;;4.97;3.97;;;16.80;1.00;;;;;;4965000;28;20058;-92
2022/09/22 10:34:37;;;;;;;;;;;16.90;1.00;;;;;;4950587;28;20038;-92
2022/09/22 10:37:09;;;;;;;8.13;3.92;;;17.10;1.00;;;;;;4949943;28;20439;-93
2022/09/22 10:39:57;;;;;;;8.23;3.70;;;17.20;99.90;;;;;;4955252;28;20292;-92
2022/09/22 10:42:36;;;;;;;6.45;3.15;;;17.30;1.00;;;;;;4975630;28;20193;-91
2022/09/22 10:45:35;;;;;;;5.75;3.20;;;17.50;1.00;;;;;;4955163;28;20042;-92
2022/09/22 10:48:43;;;;;;;5.38;3.25;;;17.50;99.90;;;;;;4974663;28;20288;-92
2022/09/22 10:51:25;;;;;;;5.53;3.35;;;17.90;99.90;;;;;;4962998;28;20050;-92
2022/09/22 10:54:12;;;;;;;5.82;3.22;;;18.00;99.90;;;;;;4956687;28;20049;-93
2022/09/22 10:57:08;;;;;;;7.13;3.10;;;17.50;99.90;;;;;;4964311;28;20500;-91
2022/09/22 11:00:05;;;;;;;6.05;3.20;;;17.10;1.00;;;;;;4980487;28;20038;-92
2022/09/22 11:02:57;;;;;;;6.20;3.40;;;17.10;99.90;;;;;;4968702;28;20058;-92
2022/09/22 11:12:15;;;;;;;5.80;3.78;;;17.70;99.90;;;;;;4979630;28;20042;-92
2022/09/22 11:14:37;;;;;;;7.38;3.60;;;17.60;99.90;;;;;;4976086;28;20047;-93
2022/09/22 11:17:28;;;;;;;7.20;4.30;;;17.60;99.90;;;;;;4981026;28;20050;-93
2022/09/22 11:20:17;;;;;;;7.07;4.30;;;17.70;99.90;;;;;;4958274;28;20042;-92
2022/09/22 11:22:55;;;;;;;6.03;4.22;;;17.80;99.90;;;;;;4955951;28;20050;-92
2022/09/22 11:25:34;;;;;;;7.30;4.45;;;18.40;99.90;;;;;;4949920;28;20112;-93
2022/09/22 11:28:19;;;;;;;6.90;4.20;;;18.80;99.90;;;;;;4977407;28;20054;-94
2022/09/22 11:30:53;;;;;;;6.45;5.00;;;19.20;99.90;;;;;;4955605;28;20054;-92
2022/09/22 11:33:19;;;;;;;7.18;4.80;;;18.70;99.90;;;;;;4973681;28;20030;-93
2022/09/22 11:36:00;;;;;;;5.88;4.45;;;19.10;99.90;;;;;;4958435;28;20034;-93
2022/09/22 11:38:56;;;;;;;6.72;4.32;;;19.30;99.90;;;;;;4969821;28;20042;-92
2022/09/22 11:41:42;;;;;;;6.15;4.07;;;18.90;99.90;;;;;;4958496;28;20058;-94
2022/09/22 11:44:49;;;;;;;9.65;4.82;;;19.20;99.90;;;;;;4948426;28;20039;-93
2022/09/22 11:47:35;;;;;;;8.90;5.80;;;19.70;99.90;;;;;;4974169;28;20049;-92
2022/09/22 11:50:23;;;;;;;11.50;5.88;;;19.60;99.90;;;;;;4970093;28;20142;-92
2022/09/22 11:53:04;;;;;;;7.70;5.22;;;19.50;99.90;;;;;;4967340;28;20050;-92
2022/09/22 11:55:55;;;;;;;9.27;4.93;;;19.20;99.90;;;;;;4970004;28;20046;-92
2022/09/22 11:58:26;;;;;;;9.60;4.32;;;18.70;99.90;;;;;;4963272;28;20039;-93
2022/09/22 12:01:19;;;;;;;10.90;4.90;;;18.60;99.90;;;;;;4952074;28;20046;-92
2022/09/22 12:03:47;;;;;;;8.18;4.55;;;18.90;99.90;;;;;;4943918;28;20057;-93
2022/09/22 12:06:25;;;;;;;8.63;4.80;;;19.20;99.90;;;;;;4947324;28;20042;-93
2022/09/22 12:08:56;;;;;;;7.82;4.20;;;18.90;99.90;;;;;;4950830;28;20092;-92
2022/09/22 12:11:24;;;;;;;6.93;4.10;;;18.80;99.90;;;;;;4968762;28;20521;-93
2022/09/22 12:13:52;;;;;;;6.28;3.55;;;19.10;99.90;;;;;;4966667;28;20532;-92
2022/09/22 12:16:29;;;;;;;7.15;3.80;;;18.80;99.90;;;;;;4950341;28;20039;-92
2022/09/22 12:19:08;;;;;;;5.57;4.28;;;19.30;99.90;;;;;;4952369;28;20043;-92
2022/09/22 12:21:49;;;;;;;6.47;4.22;;;19.60;99.90;;;;;;4943193;28;20444;-93
2022/09/22 12:24:15;;;;;;;6.72;3.85;;;19.60;99.90;;;;;;4965761;28;20042;-93
2022/09/22 12:26:44;;;;;;;6.63;3.90;;;19.90;99.90;;;;;;4953317;28;20040;-93
2022/09/22 12:29:13;;;;;;;5.97;3.65;;;19.80;99.90;;;;;;4955272;28;20041;-92
2022/09/22 12:31:41;;;;;;;6.97;3.70;;;19.90;99.90;;;;;;4965519;28;20506;-93
2022/09/22 12:34:30;;;;;;;7.90;4.28;;;19.30;99.90;;;;;;4947137;28;20046;-92
2022/09/22 12:37:07;;;;;;;5.97;3.90;;;19.00;99.90;;;;;;4951485;28;20370;-93
2022/09/22 12:39:40;;;;;;;5.30;4.65;;;19.10;99.90;;;;;;4966516;28;20072;-92
2022/09/22 12:42:16;;;;;;;8.75;4.28;;;19.60;99.90;;;;;;4959865;28;20042;-92
2022/09/22 12:44:52;;;;;;;5.75;4.22;;;19.20;99.90;;;;;;4944796;28;20034;-92
2022/09/22 12:47:29;;;;;;;5.95;4.22;;;18.90;99.90;;;;;;4946712;28;20030;-91
2022/09/22 12:50:08;;;;;;;6.40;4.00;;;19.10;99.90;;;;;;4950116;28;20539;-93
2022/09/22 12:52:36;;;;;;;6.35;4.05;;;19.80;99.90;;;;;;4960621;28;20101;-92
2022/09/22 12:55:28;;;;;;;7.07;5.03;;;20.20;99.90;;;;;;4949994;28;20046;-92
2022/09/22 12:57:56;;;;;;;10.88;4.70;;;19.90;99.90;;;;;;4959627;28;20104;-92
2022/09/22 13:00:35;;;;;;;9.60;4.88;;;19.50;99.90;;;;;;4945631;28;20038;-93
2022/09/22 13:03:24;;;;;;;7.05;4.13;;;19.20;99.90;;;;;;4949951;28;20046;-92
2022/09/22 13:05:54;;;;;;;7.03;4.47;;;19.00;99.90;;;;;;4933406;28;20078;-93
2022/09/22 13:08:32;;;;;;;8.35;4.47;;;19.20;99.90;;;;;;4948304;28;20042;-92
2022/09/22 13:11:03;;;;;;;8.43;4.28;;;19.00;99.90;;;;;;4941469;28;20058;-92
2022/09/22 13:13:32;;;;;;;8.60;4.10;;;19.00;99.90;;;;;;4949440;28;20364;-92
2022/09/22 13:16:16;;;;;;;6.00;4.30;;;19.70;99.90;;;;;;4952192;28;20041;-92
2022/09/22 13:18:59;;;;;;;7.75;4.30;;;20.20;99.90;;;;;;4951167;28;21114;-92
2022/09/22 13:21:27;;;;;;;7.65;4.47;;;20.30;99.90;;;;;;4953189;28;20493;-92
2022/09/22 13:23:54;;;;;;;6.32;4.50;;;21.00;99.90;;;;;;4966760;28;20077;-92
2022/09/22 13:26:24;;;;;;;7.22;4.72;;;21.40;99.90;;;;;;4957365;28;20081;-92
2022/09/22 13:29:12;;;;;;;9.65;4.85;;;21.60;99.90;;;;;;4961754;28;20051;-93